createdAt,value
2018-02-06T00:00:48.327Z,8.5
2018-02-06T00:01:48.142Z,8.6
2018-02-06T00:02:48.179Z,8.6
2018-02-06T00:03:48.284Z,8.6
2018-02-06T00:04:47.976Z,8.6
2018-02-06T00:05:48.102Z,8.6
2018-02-06T00:06:48.576Z,8.6
2018-02-06T00:07:47.674Z,8.6
2018-02-06T00:08:48.500Z,8.6
2018-02-06T00:09:48.244Z,8.6
2018-02-06T00:10:47.298Z,8.6
2018-02-06T00:11:47.789Z,8.6
2018-02-06T00:12:47.389Z,8.6
2018-02-06T00:13:47.210Z,8.6
2018-02-06T00:14:47.827Z,8.6
2018-02-06T00:15:47.128Z,8.7
2018-02-06T00:16:46.900Z,8.7
2018-02-06T00:17:46.988Z,8.7
2018-02-06T00:18:46.833Z,8.7
2018-02-06T00:19:47.136Z,8.7
2018-02-06T00:20:46.959Z,8.7
2018-02-06T00:21:47.425Z,8.8
2018-02-06T00:22:47.209Z,8.8
2018-02-06T00:23:46.438Z,8.8
2018-02-06T00:24:47.216Z,8.8
2018-02-06T00:25:46.256Z,8.8
2018-02-06T00:26:46.485Z,8.8
2018-02-06T00:27:46.038Z,8.8
2018-02-06T00:28:46.310Z,8.8
2018-02-06T00:29:46.072Z,8.8
2018-02-06T00:30:46.020Z,8.8
2018-02-06T00:31:45.974Z,8.8
2018-02-06T00:32:46.013Z,8.8
2018-02-06T00:33:46.050Z,8.8
2018-02-06T00:34:45.889Z,8.8
2018-02-06T00:35:46.418Z,8.8
2018-02-06T00:36:46.032Z,8.8
2018-02-06T00:37:45.516Z,8.8
2018-02-06T00:38:45.377Z,8.8
2018-02-06T00:39:45.908Z,8.8
2018-02-06T00:40:45.294Z,8.8
2018-02-06T00:41:45.505Z,8.8
2018-02-06T00:42:45.284Z,8.8
2018-02-06T00:43:45.263Z,8.8
2018-02-06T00:44:45.119Z,8.8
2018-02-06T00:45:44.817Z,8.8
2018-02-06T00:46:44.978Z,8.8
2018-02-06T00:47:44.911Z,8.8
2018-02-06T00:48:44.504Z,8.8
2018-02-06T00:49:44.714Z,8.8
2018-02-06T00:50:44.508Z,8.8
2018-02-06T00:51:44.177Z,8.7
2018-02-06T00:52:44.965Z,8.7
2018-02-06T00:53:44.510Z,8.7
2018-02-06T00:54:44.214Z,8.7
2018-02-06T00:55:43.844Z,8.7
2018-02-06T00:56:44.340Z,8.6
2018-02-06T00:57:43.754Z,8.6
2018-02-06T00:58:44.248Z,8.6
2018-02-06T00:59:43.862Z,8.6
2018-02-06T01:00:44.005Z,8.6
2018-02-06T01:01:43.790Z,8.6
2018-02-06T01:02:43.502Z,8.5
2018-02-06T01:03:43.409Z,8.5
2018-02-06T01:04:43.244Z,8.5
2018-02-06T01:05:43.241Z,8.5
2018-02-06T01:06:43.179Z,8.4
2018-02-06T01:07:43.315Z,8.5
2018-02-06T01:08:43.161Z,8.4
2018-02-06T01:09:43.144Z,8.4
2018-02-06T01:10:43.741Z,8.4
2018-02-06T01:11:42.801Z,8.4
2018-02-06T01:12:43.121Z,8.4
2018-02-06T01:13:42.844Z,8.4
2018-02-06T01:14:42.519Z,8.4
2018-02-06T01:15:42.560Z,8.4
2018-02-06T01:16:42.678Z,8.4
2018-02-06T01:17:42.608Z,8.3
2018-02-06T01:18:42.136Z,8.3
2018-02-06T01:19:42.170Z,8.3
2018-02-06T01:20:42.353Z,8.3
2018-02-06T01:21:41.823Z,8.3
2018-02-06T01:22:42.125Z,8.3
2018-02-06T01:23:42.042Z,8.3
2018-02-06T01:24:42.256Z,8.3
2018-02-06T01:25:41.827Z,8.3
2018-02-06T01:26:41.757Z,8.3
2018-02-06T01:27:41.881Z,8.2
2018-02-06T01:28:41.704Z,8.2
2018-02-06T01:29:41.496Z,8.2
2018-02-06T01:30:41.503Z,8.2
2018-02-06T01:31:41.503Z,8.1
2018-02-06T01:32:41.355Z,8.1
2018-02-06T01:33:41.179Z,8.1
2018-02-06T01:34:41.568Z,8.1
2018-02-06T01:35:41.333Z,8.1
2018-02-06T01:36:41.084Z,8.1
2018-02-06T01:37:40.772Z,8
2018-02-06T01:38:41.517Z,8
2018-02-06T01:39:40.679Z,7.9
2018-02-06T01:40:41.063Z,7.9
2018-02-06T01:41:40.748Z,7.9
2018-02-06T01:42:40.706Z,7.9
2018-02-06T01:43:40.659Z,7.9
2018-02-06T01:44:40.751Z,7.8
2018-02-06T01:45:40.440Z,7.8
2018-02-06T01:46:40.329Z,7.8
2018-02-06T01:47:39.984Z,7.8
2018-02-06T01:48:40.178Z,7.8
2018-02-06T01:49:40.463Z,7.8
2018-02-06T01:50:40.749Z,7.8
2018-02-06T01:51:39.802Z,7.7
2018-02-06T01:52:40.061Z,7.7
2018-02-06T01:53:40.367Z,7.7
2018-02-06T01:54:39.824Z,7.7
2018-02-06T01:55:39.650Z,7.7
2018-02-06T01:56:40.197Z,7.6
2018-02-06T01:57:40.190Z,7.6
2018-02-06T01:58:39.240Z,7.6
2018-02-06T01:59:39.502Z,7.6
2018-02-06T02:00:39.584Z,7.6
2018-02-06T02:01:39.350Z,7.6
2018-02-06T02:02:39.008Z,7.6
2018-02-06T02:03:38.885Z,7.6
2018-02-06T02:04:39.315Z,7.6
2018-02-06T02:05:38.861Z,7.6
2018-02-06T02:06:39.405Z,7.6
2018-02-06T02:07:38.831Z,7.6
2018-02-06T02:08:38.844Z,7.5
2018-02-06T02:09:38.568Z,7.5
2018-02-06T02:10:38.621Z,7.5
2018-02-06T02:11:38.631Z,7.5
2018-02-06T02:12:38.572Z,7.5
2018-02-06T02:13:38.606Z,7.4
2018-02-06T02:14:38.629Z,7.4
2018-02-06T02:15:38.067Z,7.4
2018-02-06T02:16:38.727Z,7.4
2018-02-06T02:17:38.141Z,7.4
2018-02-06T02:18:38.136Z,7.4
2018-02-06T02:19:38.218Z,7.4
2018-02-06T02:20:38.350Z,7.4
2018-02-06T02:21:38.170Z,7.4
2018-02-06T02:22:37.983Z,7.4
2018-02-06T02:23:37.613Z,7.4
2018-02-06T02:24:37.642Z,7.4
2018-02-06T02:25:37.806Z,7.4
2018-02-06T02:26:37.820Z,7.4
2018-02-06T02:27:37.672Z,7.4
2018-02-06T02:28:37.385Z,7.4
2018-02-06T02:29:38.339Z,7.4
2018-02-06T02:30:37.495Z,7.4
2018-02-06T02:31:37.960Z,7.4
2018-02-06T02:32:37.139Z,7.4
2018-02-06T02:33:37.524Z,7.4
2018-02-06T02:34:37.877Z,7.4
2018-02-06T02:35:37.171Z,7.3
2018-02-06T02:36:36.795Z,7.3
2018-02-06T02:37:36.658Z,7.3
2018-02-06T02:38:37.009Z,7.3
2018-02-06T02:39:36.988Z,7.3
2018-02-06T02:40:36.485Z,7.3
2018-02-06T02:41:37.723Z,7.3
2018-02-06T04:38:28.636Z,6.8
2018-02-06T04:39:28.969Z,6.8
2018-02-06T04:40:28.099Z,6.8
2018-02-06T04:41:28.810Z,6.8
2018-02-06T04:42:28.388Z,6.8
2018-02-06T04:43:28.202Z,6.8
2018-02-06T04:44:28.010Z,6.8
2018-02-06T04:45:27.986Z,6.8
2018-02-06T04:46:28.016Z,6.8
2018-02-06T04:47:28.253Z,6.8
2018-02-06T04:48:28.441Z,6.8
2018-02-06T04:49:27.685Z,6.8
2018-02-06T04:50:27.510Z,6.8
2018-02-06T04:51:27.735Z,6.7
2018-02-06T04:52:27.451Z,6.8
2018-02-06T04:53:27.507Z,6.7
2018-02-06T04:54:27.247Z,6.8
2018-02-06T04:55:28.714Z,6.7
2018-02-06T04:56:27.297Z,6.7
2018-02-06T04:57:27.096Z,6.7
2018-02-06T04:58:27.259Z,6.7
2018-02-06T04:59:27.004Z,6.7
2018-02-06T05:00:26.817Z,6.7
2018-02-06T05:01:26.743Z,6.7
2018-02-06T05:02:27.053Z,6.7
2018-02-06T05:03:26.618Z,6.7
2018-02-06T05:04:26.556Z,6.7
2018-02-06T05:05:26.560Z,6.7
2018-02-06T05:06:26.292Z,6.6
2018-02-06T05:07:26.367Z,6.6
2018-02-06T05:08:26.216Z,6.6
2018-02-06T05:09:26.458Z,6.6
2018-02-06T05:10:26.700Z,6.6
2018-02-06T05:11:25.953Z,6.6
2018-02-06T05:12:26.285Z,6.6
2018-02-06T05:13:26.242Z,6.6
2018-02-06T05:14:25.916Z,6.6
2018-02-06T05:15:26.105Z,6.6
2018-02-06T05:16:25.805Z,6.6
2018-02-06T05:17:25.856Z,6.6
2018-02-06T05:18:25.716Z,6.6
2018-02-06T05:19:25.492Z,6.5
2018-02-06T05:20:26.053Z,6.5
2018-02-06T05:21:25.413Z,6.5
2018-02-06T05:22:25.332Z,6.5
2018-02-06T05:23:25.272Z,6.5
2018-02-06T05:24:25.455Z,6.5
2018-02-06T05:25:25.485Z,6.4
2018-02-06T05:26:25.440Z,6.4
2018-02-06T05:27:25.200Z,5.9
2018-02-06T05:28:25.248Z,5.3
2018-02-06T05:29:24.969Z,4.9
2018-02-06T05:30:25.247Z,4.7
2018-02-06T05:31:25.411Z,4.4
2018-02-06T05:32:25.126Z,4.2
2018-02-06T05:33:24.663Z,3.9
2018-02-06T05:34:24.750Z,3.8
2018-02-06T05:35:24.648Z,3.6
2018-02-06T05:36:24.467Z,3.6
2018-02-06T05:37:24.345Z,3.4
2018-02-06T05:38:24.948Z,3.4
2018-02-06T05:39:24.742Z,3.3
2018-02-06T05:40:24.448Z,3.3
2018-02-06T05:41:24.142Z,3.2
2018-02-06T05:42:23.932Z,3.1
2018-02-06T05:43:24.155Z,3.1
2018-02-06T05:44:24.353Z,3
2018-02-06T05:45:23.800Z,2.9
2018-02-06T05:46:23.797Z,2.8
2018-02-06T05:47:23.817Z,2.9
2018-02-06T05:48:23.948Z,2.8
2018-02-06T05:49:23.651Z,2.8
2018-02-06T05:50:23.827Z,2.8
2018-02-06T05:51:23.435Z,2.8
2018-02-06T05:52:23.743Z,2.8
2018-02-06T05:53:23.493Z,2.8
2018-02-06T05:54:23.313Z,2.8
2018-02-06T05:55:22.957Z,2.9
2018-02-06T05:56:23.145Z,3
2018-02-06T05:57:23.715Z,3
2018-02-06T05:58:23.101Z,3.3
2018-02-06T05:59:22.976Z,3.3
2018-02-06T06:00:23.381Z,3.4
2018-02-06T06:01:22.744Z,3.4
2018-02-06T06:02:22.859Z,3.5
2018-02-06T06:03:22.778Z,3.6
2018-02-06T06:04:22.426Z,3.6
2018-02-06T06:05:23.081Z,3.7
2018-02-06T06:06:22.820Z,3.8
2018-02-06T06:07:22.227Z,3.9
2018-02-06T06:08:23.277Z,3.9
2018-02-06T06:09:22.013Z,3.9
2018-02-06T06:10:22.322Z,4.1
2018-02-06T06:11:22.009Z,4.1
2018-02-06T06:12:22.162Z,4.3
2018-02-06T06:13:22.525Z,4.4
2018-02-06T06:14:22.063Z,4.6
2018-02-06T06:15:22.080Z,4.8
2018-02-06T06:16:22.162Z,4.8
2018-02-06T06:17:21.904Z,4.9
2018-02-06T06:18:21.955Z,5.1
2018-02-06T06:19:21.801Z,5.3
2018-02-06T06:20:21.840Z,5.4
2018-02-06T06:21:21.583Z,5.5
2018-02-06T06:22:21.096Z,5.6
2018-02-06T06:23:21.253Z,5.8
2018-02-06T06:24:21.072Z,5.9
2018-02-06T06:25:21.100Z,6.1
2018-02-06T06:26:21.326Z,6.1
2018-02-06T06:27:21.549Z,6.3
2018-02-06T06:28:21.032Z,6.4
2018-02-06T06:29:21.442Z,6.6
2018-02-06T06:30:20.735Z,6.8
2018-02-06T06:31:21.274Z,6.8
2018-02-06T06:32:20.644Z,6.8
2018-02-06T06:33:20.797Z,7
2018-02-06T06:34:20.722Z,7.2
2018-02-06T06:35:20.540Z,7.4
2018-02-06T06:36:20.233Z,7.4
2018-02-06T06:37:20.393Z,7.6
2018-02-06T06:38:20.288Z,7.9
2018-02-06T06:39:20.231Z,8.1
2018-02-06T06:40:20.540Z,8.3
2018-02-06T06:41:20.025Z,8.4
2018-02-06T06:42:20.274Z,8.6
2018-02-06T06:43:19.813Z,8.8
2018-02-06T06:44:19.597Z,8.9
2018-02-06T06:45:20.022Z,9.1
2018-02-06T06:46:19.536Z,9.4
2018-02-06T06:47:19.692Z,9.7
2018-02-06T06:48:19.605Z,9.9
2018-02-06T06:49:19.788Z,9.9
2018-02-06T06:50:19.555Z,10.3
2018-02-06T06:51:19.485Z,10.4
2018-02-06T06:52:19.413Z,10.6
2018-02-06T06:53:19.528Z,10.8
2018-02-06T06:54:19.322Z,10.8
2018-02-06T06:55:19.244Z,11.1
2018-02-06T06:56:19.342Z,11.3
2018-02-06T06:57:19.149Z,11.5
2018-02-06T06:58:19.004Z,11.7
2018-02-06T06:59:18.952Z,11.9
2018-02-06T07:00:18.688Z,12.1
2018-02-06T07:01:18.893Z,12.2
2018-02-06T07:02:18.578Z,12.1
2018-02-06T07:03:18.697Z,11.9
2018-02-06T07:04:18.307Z,12
2018-02-06T07:05:18.361Z,12.1
2018-02-06T07:06:18.222Z,12.4
2018-02-06T07:07:18.144Z,12.4
2018-02-06T07:08:18.182Z,12.6
2018-02-06T07:09:18.247Z,12.8
2018-02-06T07:10:18.409Z,12.8
2018-02-06T07:11:18.335Z,13
2018-02-06T07:12:17.666Z,13.3
2018-02-06T07:13:18.067Z,13.4
2018-02-06T07:14:18.337Z,13.4
2018-02-06T07:15:18.285Z,13.6
2018-02-06T07:16:18.003Z,13.8
2018-02-06T07:17:17.612Z,13.9
2018-02-06T07:18:17.583Z,14.3
2018-02-06T07:19:17.605Z,14.4
2018-02-06T07:20:17.555Z,14.6
2018-02-06T07:21:17.361Z,14.8
2018-02-06T07:22:17.180Z,14.9
2018-02-06T07:23:17.593Z,14.9
2018-02-06T07:24:17.149Z,15.1
2018-02-06T07:25:16.785Z,15.4
2018-02-06T07:26:17.037Z,15.7
2018-02-06T07:27:16.800Z,15.9
2018-02-06T07:28:16.766Z,15.9
2018-02-06T07:29:16.977Z,15.8
2018-02-06T07:30:16.941Z,15.9
2018-02-06T07:31:16.410Z,16
2018-02-06T07:32:16.609Z,16
2018-02-06T07:33:16.412Z,15.9
2018-02-06T07:34:16.260Z,16
2018-02-06T07:35:16.650Z,16.4
2018-02-06T07:36:16.902Z,16.6
2018-02-06T07:37:16.680Z,16.8
2018-02-06T07:38:16.274Z,16.9
2018-02-06T07:39:15.907Z,16.8
2018-02-06T07:40:16.018Z,16.8
2018-02-06T07:41:16.082Z,16.9
2018-02-06T07:42:15.938Z,17.1
2018-02-06T07:43:15.607Z,17.1
2018-02-06T07:44:15.884Z,17.3
2018-02-06T07:45:15.426Z,17.4
2018-02-06T07:46:15.454Z,17.8
2018-02-06T07:47:15.763Z,18
2018-02-06T07:48:15.228Z,18.3
2018-02-06T07:49:15.299Z,18.1
2018-02-06T07:50:15.320Z,18.2
2018-02-06T07:51:15.088Z,18.1
2018-02-06T07:52:15.095Z,18
2018-02-06T07:53:15.085Z,18.3
2018-02-06T07:54:15.307Z,18.4
2018-02-06T07:55:15.073Z,18.5
2018-02-06T07:56:14.886Z,18.2
2018-02-06T07:57:14.891Z,17.9
2018-02-06T07:58:14.757Z,18.1
2018-02-06T07:59:15.064Z,18.1
2018-02-06T08:00:14.784Z,18.2
2018-02-06T08:01:14.383Z,18.3
2018-02-06T08:02:14.793Z,18.5
2018-02-06T08:03:14.458Z,18.6
2018-02-06T08:04:14.548Z,18.8
2018-02-06T08:05:14.602Z,18.6
2018-02-06T08:06:14.056Z,18.8
2018-02-06T08:07:14.671Z,18.6
2018-02-06T08:08:14.139Z,18.6
2018-02-06T08:09:14.353Z,18.8
2018-02-06T08:10:14.091Z,18.6
2018-02-06T08:11:13.922Z,18.6
2018-02-06T08:12:14.115Z,18.1
2018-02-06T08:13:13.569Z,17.9
2018-02-06T08:14:13.794Z,18.2
2018-02-06T08:15:13.650Z,18.1
2018-02-06T08:16:13.459Z,18.5
2018-02-06T08:17:13.665Z,18.6
2018-02-06T08:18:13.515Z,18.9
2018-02-06T08:19:13.503Z,18.8
2018-02-06T08:20:13.742Z,18.9
2018-02-06T08:21:13.097Z,19.1
2018-02-06T08:22:13.048Z,19.3
2018-02-06T08:23:12.779Z,19.3
2018-02-06T08:24:12.778Z,18.8
2018-02-06T08:25:13.417Z,18.2
2018-02-06T08:26:13.539Z,18.1
2018-02-06T08:27:12.893Z,18.2
2018-02-06T08:28:12.835Z,17.8
2018-02-06T08:29:12.640Z,17.9
2018-02-06T08:30:12.576Z,17.9
2018-02-06T08:31:12.958Z,18.4
2018-02-06T08:32:12.767Z,18.3
2018-02-06T08:33:12.970Z,18.2
2018-02-06T08:34:12.321Z,18.4
2018-02-06T08:35:12.065Z,18.6
2018-02-06T08:36:12.140Z,18.6
2018-02-06T08:37:12.503Z,18.5
2018-02-06T08:38:12.951Z,18.4
2018-02-06T08:39:12.298Z,18.5
2018-02-06T08:40:11.870Z,18.6
2018-02-06T08:41:11.757Z,18.6
2018-02-06T08:42:12.214Z,18.5
2018-02-06T08:43:12.107Z,18.3
2018-02-06T08:44:11.850Z,18.2
2018-02-06T08:45:11.668Z,18.4
2018-02-06T08:46:11.435Z,18.5
2018-02-06T08:47:11.575Z,18.6
2018-02-06T08:48:11.650Z,18.9
2018-02-06T08:49:11.010Z,18.9
2018-02-06T08:50:11.142Z,18.8
2018-02-06T08:51:11.110Z,18.9
2018-02-06T08:52:10.981Z,18.8
2018-02-06T08:53:11.501Z,18.9
2018-02-06T08:54:11.002Z,18.9
2018-02-06T08:55:10.883Z,19.1
2018-02-06T08:56:10.853Z,19.2
2018-02-06T08:57:11.369Z,19.3
2018-02-06T08:58:10.937Z,19.3
2018-02-06T08:59:10.496Z,19.2
2018-02-06T09:00:10.511Z,19.2
2018-02-06T09:01:10.307Z,19.1
2018-02-06T09:02:10.361Z,19.3
2018-02-06T09:03:10.240Z,19.3
2018-02-06T09:04:10.183Z,19.2
2018-02-06T09:05:09.884Z,19.1
2018-02-06T09:06:10.017Z,19.3
2018-02-06T09:07:09.885Z,19.1
2018-02-06T09:08:10.166Z,19.3
2018-02-06T09:09:09.958Z,19.2
2018-02-06T09:10:10.134Z,19.2
2018-02-06T09:11:09.922Z,19.4
2018-02-06T09:12:09.703Z,19.3
2018-02-06T09:13:09.675Z,19.4
2018-02-06T09:14:09.862Z,19.6
2018-02-06T09:15:09.603Z,19.8
2018-02-06T09:16:09.443Z,20
2018-02-06T09:17:09.331Z,20.3
2018-02-06T09:18:09.217Z,20.3
2018-02-06T09:19:09.104Z,20.3
2018-02-06T09:20:09.154Z,20.3
2018-02-06T09:21:08.918Z,20.4
2018-02-06T09:22:09.187Z,20.5
2018-02-06T09:23:09.434Z,20.6
2018-02-06T09:24:08.840Z,20.7
2018-02-06T09:25:08.485Z,20.6
2018-02-06T09:26:08.655Z,20.3
2018-02-06T09:27:08.404Z,20.2
2018-02-06T09:28:08.538Z,20.3
2018-02-06T09:29:08.398Z,20.2
2018-02-06T09:30:08.368Z,20.1
2018-02-06T09:31:08.600Z,19.9
2018-02-06T09:32:08.437Z,20
2018-02-06T09:33:08.495Z,19.6
2018-02-06T09:34:07.870Z,19.4
2018-02-06T09:35:08.215Z,19.5
2018-02-06T09:36:08.453Z,19.6
2018-02-06T09:37:07.820Z,19.8
2018-02-06T09:38:07.724Z,19.9
2018-02-06T09:39:08.128Z,19.9
2018-02-06T09:40:07.730Z,19.8
2018-02-06T09:41:07.832Z,19.7
2018-02-06T09:42:07.615Z,19.8
2018-02-06T09:43:07.592Z,20.4
2018-02-06T09:44:07.516Z,20.7
2018-02-06T09:45:07.238Z,21.1
2018-02-06T09:46:07.775Z,21.4
2018-02-06T09:47:07.275Z,21.7
2018-02-06T09:48:06.988Z,21.9
2018-02-06T09:49:07.795Z,22
2018-02-06T09:50:06.890Z,22.1
2018-02-06T09:51:06.701Z,22.3
2018-02-06T09:52:07.045Z,22.4
2018-02-06T09:53:07.085Z,22.5
2018-02-06T09:54:06.630Z,22.6
2018-02-06T09:55:06.435Z,22.8
2018-02-06T09:56:06.366Z,22.9
2018-02-06T09:57:06.778Z,22.9
2018-02-06T09:58:06.857Z,23.1
2018-02-06T09:59:06.376Z,23.2
2018-02-06T10:00:06.127Z,23.3
2018-02-06T10:01:06.769Z,23.3
2018-02-06T10:02:06.446Z,23.4
2018-02-06T10:03:06.248Z,23.5
2018-02-06T10:04:06.311Z,23.6
2018-02-06T10:05:06.254Z,23.7
2018-02-06T10:06:05.796Z,23.6
2018-02-06T10:07:05.980Z,23.7
2018-02-06T10:08:05.640Z,23.8
2018-02-06T10:09:05.576Z,23.9
2018-02-06T10:10:05.697Z,23.9
2018-02-06T10:11:05.810Z,23.9
2018-02-06T10:12:05.887Z,23.4
2018-02-06T10:13:05.433Z,22.9
2018-02-06T10:14:05.589Z,22.3
2018-02-06T10:15:05.282Z,21.9
2018-02-06T10:16:05.203Z,21.6
2018-02-06T10:17:05.342Z,21.4
2018-02-06T10:18:05.342Z,21.1
2018-02-06T10:19:05.302Z,21
2018-02-06T10:20:04.962Z,20.9
2018-02-06T10:21:04.625Z,20.8
2018-02-06T10:22:04.939Z,20.7
2018-02-06T10:23:04.901Z,20.7
2018-02-06T10:24:05.024Z,20.4
2018-02-06T10:25:04.867Z,20.3
2018-02-06T10:26:04.503Z,20.4
2018-02-06T10:27:04.866Z,19.9
2018-02-06T10:28:04.517Z,19.6
2018-02-06T10:29:04.581Z,19.3
2018-02-06T10:30:04.248Z,19.1
2018-02-06T10:31:04.502Z,18.9
2018-02-06T10:32:04.561Z,18.8
2018-02-06T10:33:04.207Z,18.8
2018-02-06T10:34:04.005Z,18.6
2018-02-06T10:35:03.910Z,18.5
2018-02-06T10:36:03.969Z,18.5
2018-02-06T10:37:04.071Z,18.6
2018-02-06T10:38:03.681Z,18.5
2018-02-06T10:39:03.499Z,18.4
2018-02-06T10:40:03.453Z,18.3
2018-02-06T10:41:03.781Z,18.3
2018-02-06T10:42:03.542Z,18.2
2018-02-06T10:43:03.583Z,18.1
2018-02-06T10:44:03.328Z,17.9
2018-02-06T10:45:03.190Z,17.4
2018-02-06T10:46:03.541Z,16.9
2018-02-06T10:47:03.543Z,16.6
2018-02-06T10:48:03.182Z,16.4
2018-02-06T10:49:03.084Z,16.4
2018-02-06T10:50:03.098Z,15.9
2018-02-06T10:51:03.349Z,15.8
2018-02-06T10:52:03.101Z,15.7
2018-02-06T10:53:03.413Z,16.3
2018-02-06T10:54:02.826Z,16
2018-02-06T10:55:02.709Z,16.1
2018-02-06T10:56:02.549Z,16.2
2018-02-06T10:57:02.757Z,16.2
2018-02-06T10:58:02.506Z,15.9
2018-02-06T10:59:02.548Z,15.5
2018-02-06T11:00:02.080Z,14.9
2018-02-06T11:01:02.210Z,14.6
2018-02-06T11:02:01.900Z,15.1
2018-02-06T11:03:02.056Z,15.3
2018-02-06T11:04:01.956Z,15.5
2018-02-06T11:05:01.672Z,15.8
2018-02-06T11:06:01.640Z,15.2
2018-02-06T11:07:01.921Z,14.9
2018-02-06T11:08:02.062Z,14.9
2018-02-06T11:09:01.705Z,15.1
2018-02-06T11:10:01.692Z,14.8
2018-02-06T11:11:01.691Z,14.6
2018-02-06T11:12:01.533Z,14.6
2018-02-06T11:13:01.786Z,14.9
2018-02-06T11:14:01.073Z,15.2
2018-02-06T11:15:01.590Z,14.9
2018-02-06T11:16:01.138Z,14.8
2018-02-06T11:17:01.366Z,15
2018-02-06T11:18:01.464Z,14.6
2018-02-06T11:19:01.213Z,14.8
2018-02-06T11:20:01.152Z,14.7
2018-02-06T11:21:00.824Z,14.4
2018-02-06T11:22:00.603Z,14.6
2018-02-06T11:23:00.633Z,14.9
2018-02-06T11:24:00.868Z,14.8
2018-02-06T11:25:00.439Z,14.8
2018-02-06T11:26:00.490Z,14.6
2018-02-06T11:27:00.622Z,14.7
2018-02-06T11:28:00.448Z,14.6
2018-02-06T11:29:00.224Z,14.7
2018-02-06T11:30:00.068Z,14.1
2018-02-06T11:31:00.679Z,14.3
2018-02-06T11:32:00.259Z,14.3
2018-02-06T11:33:00.068Z,14.1
2018-02-06T11:34:00.075Z,14
2018-02-06T11:35:00.147Z,14.1
2018-02-06T11:36:00.558Z,13.9
2018-02-06T11:37:00.009Z,14.1
2018-02-06T11:37:59.645Z,14.3
2018-02-06T11:38:59.366Z,14.5
2018-02-06T11:39:59.859Z,14.6
2018-02-06T11:40:59.061Z,14.6
2018-02-06T11:42:00.439Z,14.4
2018-02-06T11:42:59.547Z,14.2
2018-02-06T11:43:59.606Z,14.2
2018-02-06T11:44:59.467Z,14
2018-02-06T11:45:59.109Z,13.9
2018-02-06T11:46:59.060Z,13.4
2018-02-06T11:47:58.932Z,13.1
2018-02-06T11:48:58.879Z,13
2018-02-06T11:49:58.878Z,12.9
2018-02-06T11:50:59.720Z,12.8
2018-02-06T11:51:58.671Z,12.6
2018-02-06T11:52:58.511Z,12.4
2018-02-06T11:53:58.596Z,12.4
2018-02-06T11:54:58.835Z,12.5
2018-02-06T11:55:58.432Z,12.3
2018-02-06T11:56:58.345Z,12.3
2018-02-06T11:57:58.254Z,12.3
2018-02-06T11:58:58.270Z,12.1
2018-02-06T11:59:57.940Z,12.2
2018-02-06T12:00:58.067Z,12.1
2018-02-06T12:01:58.001Z,12.3
2018-02-06T12:02:57.925Z,12.3
2018-02-06T12:03:57.750Z,12.1
2018-02-06T12:04:57.874Z,11.9
2018-02-06T12:05:58.040Z,11.8
2018-02-06T12:06:57.803Z,11.7
2018-02-06T12:07:57.393Z,11.7
2018-02-06T12:08:57.188Z,11.6
2018-02-06T12:09:57.440Z,11.6
2018-02-06T12:10:57.331Z,11.5
2018-02-06T12:11:57.470Z,11.4
2018-02-06T12:12:57.407Z,11.4
2018-02-06T12:13:56.942Z,11.4
2018-02-06T12:14:57.109Z,11.3
2018-02-06T12:15:57.535Z,11.1
2018-02-06T12:16:56.919Z,11.3
2018-02-06T12:17:56.726Z,11.1
2018-02-06T12:18:56.572Z,11.1
2018-02-06T12:19:56.660Z,10.9
2018-02-06T12:20:57.095Z,10.8
2018-02-06T12:21:56.740Z,10.6
2018-02-06T12:22:56.580Z,10.6
2018-02-06T12:23:56.464Z,10.6
2018-02-06T12:24:56.905Z,10.7
2018-02-06T12:25:56.327Z,10.8
2018-02-06T12:26:56.167Z,10.7
2018-02-06T12:27:56.329Z,10.6
2018-02-06T12:28:56.029Z,10.6
2018-02-06T12:29:56.348Z,10.7
2018-02-06T12:30:56.070Z,10.6
2018-02-06T12:31:56.040Z,10.7
2018-02-06T12:32:56.026Z,10.8
2018-02-06T12:33:55.908Z,10.6
2018-02-06T12:34:55.500Z,10.5
2018-02-06T12:35:56.634Z,10.4
2018-02-06T12:36:55.797Z,10.3
2018-02-06T12:37:55.580Z,10.2
2018-02-06T12:38:55.355Z,10.3
2018-02-06T12:39:55.243Z,10.3
2018-02-06T12:40:55.855Z,10.3
2018-02-06T12:41:55.011Z,10.3
2018-02-06T12:42:55.278Z,10.3
2018-02-06T12:43:55.085Z,10.2
2018-02-06T12:44:56.067Z,10.1
2018-02-06T12:45:54.748Z,10.1
2018-02-06T12:46:55.098Z,10.1
2018-02-06T12:47:54.944Z,9.9
2018-02-06T12:48:54.872Z,9.9
2018-02-06T12:49:54.682Z,9.9
2018-02-06T12:50:54.639Z,9.8
2018-02-06T12:51:54.387Z,9.7
2018-02-06T12:52:55.054Z,9.7
2018-02-06T12:53:54.206Z,9.6
2018-02-06T12:54:55.708Z,9.6
2018-02-06T12:55:54.159Z,9.5
2018-02-06T12:56:54.333Z,9.5
2018-02-06T12:57:54.098Z,9.4
2018-02-06T12:58:54.212Z,9.4
2018-02-06T12:59:53.743Z,9.5
2018-02-06T13:00:54.227Z,9.6
2018-02-06T13:01:53.934Z,9.7
2018-02-06T13:02:53.583Z,9.7
2018-02-06T13:03:53.626Z,9.6
2018-02-06T13:04:53.516Z,9.6
2018-02-06T13:05:53.357Z,9.6
2018-02-06T13:06:53.754Z,9.6
2018-02-06T13:07:53.627Z,9.7
2018-02-06T13:08:53.425Z,9.8
2018-02-06T13:09:53.682Z,9.8
2018-02-06T13:10:53.489Z,9.9
2018-02-06T13:11:53.006Z,10
2018-02-06T13:12:53.307Z,10.2
2018-02-06T13:13:53.056Z,10.3
2018-02-06T13:14:52.867Z,10.1
2018-02-06T13:15:52.732Z,10
2018-02-06T13:16:52.879Z,9.9
2018-02-06T13:17:52.633Z,9.8
2018-02-06T13:18:53.189Z,9.8
2018-02-06T13:19:52.810Z,9.8
2018-02-06T13:20:52.332Z,9.8
2018-02-06T13:21:52.595Z,9.8
2018-02-06T13:22:52.244Z,9.6
2018-02-06T13:23:52.101Z,9.4
2018-02-06T13:24:52.201Z,9.4
2018-02-06T13:25:52.302Z,9.4
2018-02-06T13:26:52.332Z,9.3
2018-02-06T13:27:52.193Z,9.3
2018-02-06T13:28:51.747Z,9.3
2018-02-06T13:29:51.806Z,9.3
2018-02-06T13:30:51.756Z,9.3
2018-02-06T13:31:51.583Z,9.3
2018-02-06T13:32:52.228Z,9.3
2018-02-06T13:33:51.704Z,9.3
2018-02-06T13:34:51.535Z,9.3
2018-02-06T13:35:51.399Z,9.3
2018-02-06T13:36:51.622Z,9.3
2018-02-06T13:37:51.647Z,9.3
2018-02-06T13:38:51.755Z,9.3
2018-02-06T13:39:50.995Z,9.3
2018-02-06T13:40:51.722Z,9.3
2018-02-06T13:41:51.331Z,9.3
2018-02-06T13:42:51.146Z,9.3
2018-02-06T13:43:50.885Z,9.2
2018-02-06T13:44:50.737Z,9.3
2018-02-06T13:45:50.843Z,9.2
2018-02-06T13:46:51.068Z,9.2
2018-02-06T13:47:50.789Z,9.2
2018-02-06T13:48:51.222Z,9.1
2018-02-06T13:49:50.534Z,9.1
2018-02-06T13:50:50.702Z,9.2
2018-02-06T13:51:50.108Z,9.1
2018-02-06T13:52:50.472Z,9.1
2018-02-06T13:53:50.172Z,9.1
2018-02-06T13:54:50.574Z,9.1
2018-02-06T13:55:50.440Z,9
2018-02-06T13:56:50.268Z,9.1
2018-02-06T13:57:49.843Z,9
2018-02-06T13:58:49.796Z,9.1
2018-02-06T13:59:49.681Z,9.1
2018-02-06T14:00:49.754Z,9.1
2018-02-06T14:01:49.481Z,9.1
2018-02-06T14:02:50.034Z,9.1
2018-02-06T14:03:49.679Z,9.1
2018-02-06T14:04:49.437Z,9
2018-02-06T14:05:50.066Z,9.1
2018-02-06T14:06:49.366Z,9
2018-02-06T14:07:49.217Z,9.1
2018-02-06T14:08:49.303Z,9.1
2018-02-06T14:09:49.304Z,9.2
2018-02-06T14:10:49.234Z,9.2
2018-02-06T14:11:49.502Z,9.2
2018-02-06T14:12:48.980Z,9.1
2018-02-06T14:13:48.922Z,9.1
2018-02-06T14:14:48.730Z,9.1
2018-02-06T14:15:48.704Z,9
2018-02-06T14:16:48.760Z,9.1
2018-02-06T14:17:48.723Z,9
2018-02-06T14:18:48.631Z,8.9
2018-02-06T14:19:48.737Z,8.9
2018-02-06T14:20:48.242Z,8.9
2018-02-06T14:21:48.740Z,8.9
2018-02-06T14:22:48.064Z,9
2018-02-06T14:23:48.653Z,9
2018-02-06T14:24:48.153Z,9
2018-02-06T14:25:47.869Z,9
2018-02-06T14:26:48.500Z,8.9
2018-02-06T14:27:47.801Z,8.9
2018-02-06T14:28:48.077Z,8.8
2018-02-06T14:29:47.955Z,8.8
2018-02-06T14:30:48.037Z,8.8
2018-02-06T14:31:47.571Z,8.8
2018-02-06T14:32:47.944Z,8.8
2018-02-06T14:33:47.390Z,8.8
2018-02-06T14:34:47.295Z,8.8
2018-02-06T14:35:47.330Z,8.8
2018-02-06T14:36:47.437Z,8.8
2018-02-06T14:37:47.316Z,8.7
2018-02-06T14:38:47.272Z,8.7
2018-02-06T14:39:47.122Z,8.6
2018-02-06T14:40:47.454Z,8.7
2018-02-06T14:41:47.280Z,8.6
2018-02-06T14:42:47.150Z,8.7
2018-02-06T14:43:46.806Z,8.6
2018-02-06T14:44:47.534Z,8.6
2018-02-06T14:45:46.759Z,8.6
2018-02-06T14:46:46.667Z,8.6
2018-02-06T14:47:46.643Z,8.6
2018-02-06T14:48:46.398Z,8.6
2018-02-06T14:49:46.969Z,8.6
2018-02-06T14:50:46.277Z,8.6
2018-02-06T14:51:45.963Z,8.7
2018-02-06T14:52:46.350Z,8.8
2018-02-06T14:53:45.950Z,8.7
2018-02-06T14:54:45.988Z,8.7
2018-02-06T14:55:46.243Z,8.7
2018-02-06T14:56:46.112Z,8.7
2018-02-06T14:57:46.340Z,8.6
2018-02-06T14:58:46.507Z,8.6
